createdAt,value
2018-05-09T00:01:43.580Z,16.34
2018-05-09T00:04:10.472Z,16.23
2018-05-09T00:06:37.372Z,16.16
2018-05-09T00:09:04.377Z,16.21
2018-05-09T00:11:31.283Z,16.20
2018-05-09T00:13:58.155Z,16.17
2018-05-09T00:16:25.961Z,16.14
2018-05-09T00:18:52.835Z,16.24
2018-05-09T00:21:19.776Z,16.15
2018-05-09T00:23:47.484Z,16.12
2018-05-09T00:26:14.632Z,16.23
2018-05-09T00:28:42.248Z,16.21
2018-05-09T00:31:09.185Z,16.20
2018-05-09T00:33:36.068Z,16.28
2018-05-09T00:36:03.707Z,16.19
2018-05-09T00:38:30.738Z,16.14
2018-05-09T00:40:58.392Z,16.19
2018-05-09T00:43:25.294Z,16.29
2018-05-09T00:45:53.164Z,16.30
2018-05-09T00:48:20.805Z,16.23
2018-05-09T00:50:47.675Z,16.06
2018-05-09T00:53:15.355Z,16.15
2018-05-09T00:55:42.245Z,16.18
2018-05-09T00:58:09.127Z,16.24
2018-05-09T01:00:36.831Z,16.01
2018-05-09T01:03:03.750Z,16.00
2018-05-09T01:05:30.766Z,16.01
2018-05-09T01:07:57.712Z,15.94
2018-05-09T01:10:24.592Z,15.78
2018-05-09T01:12:51.484Z,15.82
2018-05-09T01:15:19.207Z,15.91
2018-05-09T01:17:46.088Z,15.87
2018-05-09T01:20:13.005Z,15.85
2018-05-09T01:22:39.953Z,15.59
2018-05-09T01:25:06.840Z,15.68
2018-05-09T01:27:33.736Z,15.86
2018-05-09T01:30:00.694Z,15.77
2018-05-09T01:32:27.592Z,15.60
2018-05-09T01:34:55.216Z,15.79
2018-05-09T01:37:22.145Z,15.78
2018-05-09T01:39:49.029Z,15.71
2018-05-09T01:42:15.907Z,15.73
2018-05-09T01:44:42.867Z,15.78
2018-05-09T01:47:09.744Z,15.67
2018-05-09T01:49:36.635Z,15.88
2018-05-09T01:52:04.364Z,15.83
2018-05-09T01:54:31.245Z,15.66
2018-05-09T01:56:58.872Z,15.67
2018-05-09T01:59:25.815Z,15.83
2018-05-09T02:01:52.704Z,15.72
2018-05-09T02:04:20.334Z,15.63
2018-05-09T02:06:47.411Z,15.67
2018-05-09T02:09:15.050Z,15.63
2018-05-09T02:11:41.925Z,15.68
2018-05-09T02:14:09.641Z,15.59
2018-05-09T02:16:36.528Z,15.58
2018-05-09T02:19:04.260Z,15.52
2018-05-09T02:21:31.191Z,15.41
2018-05-09T02:23:58.174Z,15.59
2018-05-09T02:26:25.040Z,15.70
2018-05-09T02:28:52.812Z,15.65
2018-05-09T02:31:19.708Z,15.59
2018-05-09T02:33:46.585Z,15.67
2018-05-09T02:36:13.644Z,15.59
2018-05-09T02:38:41.265Z,15.65
2018-05-09T02:41:08.156Z,15.70
2018-05-09T02:43:35.313Z,15.61
2018-05-09T02:46:02.236Z,15.49
2018-05-09T02:48:29.866Z,15.52
2018-05-09T02:50:56.798Z,15.51
2018-05-09T02:53:23.688Z,15.60
2018-05-09T02:55:51.308Z,15.53
2018-05-09T02:58:18.230Z,15.46
2018-05-09T03:00:45.128Z,15.38
2018-05-09T03:03:12.032Z,15.34
2018-05-09T03:05:39.053Z,15.31
2018-05-09T03:08:05.960Z,15.38
2018-05-09T03:10:32.844Z,15.28
2018-05-09T03:12:59.762Z,15.25
2018-05-09T03:15:26.646Z,15.20
2018-05-09T03:17:53.537Z,15.24
2018-05-09T03:20:20.942Z,15.33
2018-05-09T03:22:48.553Z,15.28
2018-05-09T03:25:15.439Z,15.15
2018-05-09T03:27:42.595Z,15.04
2018-05-09T03:30:09.489Z,14.91
2018-05-09T03:32:36.380Z,15.12
2018-05-09T03:35:04.103Z,15.10
2018-05-09T03:37:30.998Z,14.87
2018-05-09T03:39:57.889Z,15.03
2018-05-09T03:42:25.593Z,14.98
2018-05-09T03:44:53.224Z,15.01
2018-05-09T03:47:20.091Z,14.78
2018-05-09T03:49:47.762Z,14.68
2018-05-09T03:52:15.383Z,14.96
2018-05-09T03:54:42.303Z,14.94
2018-05-09T03:57:09.235Z,14.96
2018-05-09T03:59:36.116Z,15.00
2018-05-09T04:02:21.339Z,14.94
2018-05-09T04:05:07.231Z,14.97
2018-05-09T04:10:39.639Z,14.78
2018-05-09T04:13:06.603Z,14.81
2018-05-09T04:15:33.465Z,14.62
2018-05-09T04:18:00.340Z,14.89
2018-05-09T04:20:27.348Z,14.61
2018-05-09T04:22:54.229Z,14.78
2018-05-09T04:25:21.108Z,14.74
2018-05-09T04:27:48.055Z,14.71
2018-05-09T04:30:14.939Z,14.65
2018-05-09T04:32:41.828Z,14.90
2018-05-09T04:35:09.509Z,14.70
2018-05-09T04:37:36.403Z,14.90
2018-05-09T04:40:03.326Z,14.69
2018-05-09T04:42:30.304Z,14.60
2018-05-09T04:44:57.225Z,14.88
2018-05-09T04:47:24.111Z,14.92
2018-05-09T04:49:52.809Z,14.75
2018-05-09T04:52:19.726Z,15.11
2018-05-09T04:54:46.621Z,15.20
2018-05-09T04:57:13.564Z,15.12
2018-05-09T04:59:40.441Z,15.06
2018-05-09T05:02:07.412Z,14.99
2018-05-09T05:04:34.359Z,15.11
2018-05-09T05:07:01.316Z,15.38
2018-05-09T05:09:28.167Z,15.87
2018-05-09T05:11:55.845Z,16.24
2018-05-09T05:14:22.757Z,16.40
2018-05-09T05:16:49.700Z,16.89
2018-05-09T05:19:16.655Z,17.42
2018-05-09T05:21:43.532Z,16.68
2018-05-09T05:24:10.460Z,17.27
2018-05-09T05:26:38.127Z,17.55
2018-05-09T05:29:05.800Z,16.79
2018-05-09T05:31:33.423Z,17.09
2018-05-09T05:34:00.361Z,17.15
2018-05-09T05:36:27.239Z,16.69
2018-05-09T05:38:54.160Z,16.96
2018-05-09T05:41:21.153Z,18.13
2018-05-09T05:43:48.131Z,17.23
2018-05-09T05:46:15.005Z,17.85
2018-05-09T05:48:42.091Z,18.63
2018-05-09T05:51:09.708Z,18.84
2018-05-09T05:53:36.601Z,18.98
2018-05-09T05:56:03.584Z,18.74
2018-05-09T05:58:30.430Z,18.77
2018-05-09T06:00:57.320Z,19.25
2018-05-09T06:03:25.117Z,18.68
2018-05-09T06:05:51.991Z,19.86
2018-05-09T06:08:18.876Z,19.99
2018-05-09T06:10:46.561Z,19.53
2018-05-09T06:13:13.452Z,18.96
2018-05-09T06:15:40.338Z,18.35
2018-05-09T06:18:08.015Z,19.68
2018-05-09T06:20:34.939Z,19.65
2018-05-09T06:23:02.580Z,20.21
2018-05-09T06:25:29.523Z,20.03
2018-05-09T06:27:56.453Z,19.72
2018-05-09T06:30:23.346Z,20.40
2018-05-09T06:32:51.080Z,20.72
2018-05-09T06:35:17.973Z,20.07
2018-05-09T06:37:44.927Z,19.74
2018-05-09T06:40:11.821Z,19.82
2018-05-09T06:42:38.788Z,19.29
2018-05-09T06:45:06.410Z,20.31
2018-05-09T06:47:33.526Z,21.08
2018-05-09T06:50:00.431Z,21.60
2018-05-09T06:52:28.083Z,20.86
2018-05-09T06:54:55.017Z,20.09
2018-05-09T06:57:21.908Z,20.47
2018-05-09T06:59:49.573Z,20.91
2018-05-09T07:02:16.486Z,21.61
2018-05-09T07:04:43.372Z,21.92
2018-05-09T07:07:10.299Z,22.68
2018-05-09T07:09:37.975Z,22.15
2018-05-09T07:12:04.888Z,23.03
2018-05-09T07:14:31.830Z,23.38
2018-05-09T07:16:58.919Z,22.97
2018-05-09T07:19:26.550Z,22.98
2018-05-09T07:21:53.444Z,22.40
2018-05-09T07:24:20.473Z,22.73
2018-05-09T07:26:47.397Z,22.88
2018-05-09T07:29:14.279Z,22.69
2018-05-09T07:31:41.200Z,23.14
2018-05-09T07:34:08.083Z,23.04
2018-05-09T07:36:34.967Z,22.82
2018-05-09T07:39:02.109Z,23.24
2018-05-09T07:41:29.003Z,22.86
2018-05-09T07:43:56.000Z,22.50
2018-05-09T07:46:23.191Z,23.75
2018-05-09T07:48:50.881Z,24.38
2018-05-09T07:51:17.813Z,23.90
2018-05-09T07:53:44.743Z,24.39
2018-05-09T07:56:12.352Z,23.87
2018-05-09T07:58:39.271Z,23.83
2018-05-09T08:01:06.204Z,24.17
2018-05-09T08:03:33.833Z,25.01
2018-05-09T08:06:00.743Z,24.55
2018-05-09T08:08:27.744Z,25.19
2018-05-09T08:10:54.616Z,25.57
2018-05-09T08:13:21.492Z,25.52
2018-05-09T08:15:48.412Z,26.19
2018-05-09T08:18:15.300Z,25.90
2018-05-09T08:20:42.204Z,25.45
2018-05-09T08:23:09.122Z,26.72
2018-05-09T08:25:36.746Z,26.93
2018-05-09T08:28:03.689Z,27.02
2018-05-09T08:30:30.648Z,26.78
2018-05-09T08:32:57.535Z,26.04
2018-05-09T08:35:24.425Z,27.10
2018-05-09T08:37:51.352Z,26.56
2018-05-09T08:40:18.245Z,27.18
2018-05-09T08:42:45.115Z,27.10
2018-05-09T08:45:12.820Z,26.26
2018-05-09T08:47:39.723Z,27.20
2018-05-09T08:50:06.617Z,27.62
2018-05-09T08:52:33.649Z,26.16
2018-05-09T08:55:00.539Z,26.87
2018-05-09T08:57:28.164Z,26.87
2018-05-09T08:59:55.083Z,26.00
2018-05-09T09:02:21.948Z,26.32
2018-05-09T09:04:48.828Z,26.12
2018-05-09T09:07:16.011Z,27.01
2018-05-09T09:09:43.631Z,28.10
2018-05-09T09:12:10.529Z,28.00
2018-05-09T09:14:37.459Z,27.09
2018-05-09T09:17:05.158Z,26.76
2018-05-09T09:19:32.036Z,26.70
2018-05-09T09:21:58.980Z,27.23
2018-05-09T09:24:25.875Z,26.77
2018-05-09T09:26:52.796Z,26.48
2018-05-09T09:29:20.664Z,26.67
2018-05-09T09:31:48.323Z,26.78
2018-05-09T09:34:15.960Z,27.67
2018-05-09T09:36:42.878Z,27.34
2018-05-09T09:39:09.746Z,27.41
2018-05-09T09:41:36.679Z,26.80
2018-05-09T09:44:03.607Z,27.46
2018-05-09T09:46:30.499Z,27.45
2018-05-09T09:48:57.372Z,27.02
2018-05-09T09:51:25.243Z,27.33
2018-05-09T09:53:52.877Z,27.56
2018-05-09T09:56:19.760Z,27.01
2018-05-09T09:58:46.878Z,26.66
2018-05-09T10:01:13.764Z,26.87
2018-05-09T10:03:40.648Z,27.22
2018-05-09T10:06:07.610Z,27.24
2018-05-09T10:08:34.523Z,27.73
2018-05-09T10:11:02.165Z,28.05
2018-05-09T10:13:29.295Z,27.39
2018-05-09T10:15:56.986Z,27.90
2018-05-09T10:18:23.845Z,27.98
2018-05-09T10:20:50.778Z,27.85
2018-05-09T10:23:17.690Z,27.54
2018-05-09T10:25:45.320Z,27.05
2018-05-09T10:28:13.342Z,27.66
2018-05-09T10:30:40.212Z,28.09
2018-05-09T10:33:07.113Z,27.99
2018-05-09T10:35:34.792Z,27.67
2018-05-09T10:38:01.680Z,27.84
2018-05-09T10:40:28.668Z,27.99
2018-05-09T10:42:56.427Z,28.09
2018-05-09T10:45:24.056Z,27.97
2018-05-09T10:47:50.944Z,27.69
2018-05-09T10:50:18.720Z,27.34
2018-05-09T10:52:46.336Z,27.59
2018-05-09T10:55:13.227Z,27.71
2018-05-09T10:57:40.348Z,27.89
2018-05-09T11:00:07.228Z,27.76
2018-05-09T11:02:34.136Z,27.61
2018-05-09T11:05:01.167Z,27.17
2018-05-09T11:07:28.043Z,27.97
2018-05-09T11:09:55.661Z,27.58
2018-05-09T11:12:22.588Z,27.79
2018-05-09T11:14:49.467Z,28.02
2018-05-09T11:17:16.356Z,28.12
2018-05-09T11:19:43.293Z,28.21
2018-05-09T11:22:10.917Z,27.81
2018-05-09T11:24:37.857Z,28.12
2018-05-09T11:27:04.784Z,27.82
2018-05-09T11:29:31.677Z,27.74
2018-05-09T11:31:58.569Z,27.89
2018-05-09T11:34:25.503Z,27.75
2018-05-09T11:36:52.375Z,28.05
2018-05-09T11:39:19.265Z,27.89
2018-05-09T11:41:47.015Z,27.82
2018-05-09T11:44:13.908Z,27.89
2018-05-09T11:46:40.796Z,27.97
2018-05-09T11:49:07.734Z,28.25
2018-05-09T11:51:34.660Z,28.48
2018-05-09T11:54:01.553Z,28.31
2018-05-09T11:56:28.730Z,28.20
2018-05-09T11:58:55.611Z,28.15
2018-05-09T12:01:23.248Z,28.43
2018-05-09T12:03:50.381Z,28.63
2018-05-09T12:06:17.257Z,28.52
2018-05-09T12:08:44.151Z,28.12
2018-05-09T12:11:11.488Z,28.22
2018-05-09T12:13:38.377Z,28.35
2018-05-09T12:16:05.317Z,28.35
2018-05-09T12:18:33.041Z,28.14
2018-05-09T12:20:59.957Z,28.47
2018-05-09T12:23:26.834Z,28.09
2018-05-09T12:25:53.758Z,28.17
2018-05-09T12:28:20.645Z,28.43
2018-05-09T12:30:47.542Z,28.66
2018-05-09T12:33:14.560Z,28.44
2018-05-09T12:35:42.177Z,28.33
2018-05-09T12:38:09.092Z,28.07
2018-05-09T12:40:36.033Z,28.39
2018-05-09T12:43:02.981Z,28.32
2018-05-09T12:45:29.884Z,28.52
2018-05-09T12:47:56.875Z,28.70
2018-05-09T12:50:23.765Z,28.88
2018-05-09T12:52:50.654Z,28.62
2018-05-09T12:55:17.585Z,28.85
2018-05-09T12:57:45.207Z,28.62
2018-05-09T13:00:12.096Z,28.91
2018-05-09T13:02:39.251Z,28.65
2018-05-09T13:05:06.136Z,28.60
2018-05-09T13:07:33.079Z,28.48
2018-05-09T13:10:00.008Z,28.51
2018-05-09T13:12:26.900Z,28.55
2018-05-09T13:14:53.776Z,28.72
2018-05-09T13:17:20.699Z,28.82
2018-05-09T13:19:47.628Z,28.96
2018-05-09T13:22:14.508Z,28.82
2018-05-09T13:24:42.376Z,28.82
2018-05-09T13:27:09.343Z,28.77
2018-05-09T13:29:36.278Z,28.96
2018-05-09T13:32:03.225Z,29.21
2018-05-09T13:34:30.342Z,29.12
2018-05-09T13:36:57.269Z,29.19
2018-05-09T13:39:24.204Z,29.25
2018-05-09T13:41:51.873Z,29.32
2018-05-09T13:44:18.760Z,29.32
2018-05-09T13:46:46.537Z,29.64
2018-05-09T13:49:14.165Z,29.43
2018-05-09T13:51:41.107Z,29.01
2018-05-09T13:54:08.788Z,29.33
2018-05-09T13:56:36.407Z,29.58
2018-05-09T13:59:04.035Z,29.12
2018-05-09T14:01:30.978Z,29.31
2018-05-09T14:03:58.616Z,29.36
2018-05-09T14:06:26.253Z,29.21
2018-05-09T14:08:53.183Z,29.47
2018-05-09T14:11:20.069Z,29.04
2018-05-09T14:13:46.962Z,28.72
2018-05-09T14:16:13.910Z,29.09
2018-05-09T14:18:40.792Z,29.31
2018-05-09T14:21:07.675Z,28.87
2018-05-09T14:23:35.355Z,28.74
2018-05-09T14:26:02.264Z,28.39
2018-05-09T14:28:29.942Z,28.05
2018-05-09T14:30:57.619Z,28.10
2018-05-09T14:33:24.549Z,27.96
2018-05-09T14:35:52.173Z,27.59
2018-05-09T14:38:19.112Z,27.28
2018-05-09T14:40:46.057Z,27.14
2018-05-09T14:43:12.915Z,27.15
2018-05-09T14:45:39.835Z,27.38
2018-05-09T14:48:06.847Z,27.30
2018-05-09T14:50:34.467Z,27.06
2018-05-09T14:53:01.404Z,27.54
2018-05-09T14:55:28.285Z,28.04
2018-05-09T14:57:55.162Z,28.06
2018-05-09T15:00:22.355Z,28.45
2018-05-09T15:02:49.914Z,28.85
2018-05-09T15:05:16.806Z,28.28
2018-05-09T15:07:43.760Z,27.90
2018-05-09T15:10:10.655Z,27.90
2018-05-09T15:12:37.545Z,27.77
2018-05-09T15:15:05.404Z,27.56
2018-05-09T15:17:33.137Z,27.25
2018-05-09T15:20:00.040Z,26.91
2018-05-09T15:22:27.097Z,26.76
2018-05-09T15:24:53.980Z,26.63
2018-05-09T15:27:20.868Z,26.68
2018-05-09T15:29:47.838Z,26.45
2018-05-09T15:32:14.727Z,26.18
2018-05-09T15:34:41.603Z,26.08
2018-05-09T15:37:08.560Z,26.29
2018-05-09T15:39:35.433Z,26.15
2018-05-09T15:42:02.335Z,26.20
2018-05-09T15:44:29.261Z,26.27
2018-05-09T15:46:56.888Z,26.83
2018-05-09T15:49:23.778Z,27.34
2018-05-09T15:51:51.656Z,27.44
2018-05-09T15:54:18.547Z,27.71
2018-05-09T15:56:45.441Z,27.85
2018-05-09T15:59:13.108Z,27.79
2018-05-09T16:01:40.029Z,27.47
2018-05-09T16:04:07.656Z,27.07
2018-05-09T16:06:34.608Z,26.76
2018-05-09T16:09:02.310Z,26.81
2018-05-09T16:11:29.972Z,26.63
2018-05-09T16:13:57.647Z,26.71
2018-05-09T16:16:24.564Z,26.46
2018-05-09T16:18:51.519Z,26.31
2018-05-09T16:21:18.473Z,26.50
2018-05-09T16:23:46.112Z,26.27
2018-05-09T16:26:13.008Z,26.21
2018-05-09T16:28:40.148Z,25.96
2018-05-09T16:31:07.056Z,26.02
2018-05-09T16:33:33.942Z,26.03
2018-05-09T16:36:00.892Z,26.04
2018-05-09T16:38:27.792Z,26.16
2018-05-09T16:40:54.675Z,26.52
2018-05-09T16:43:21.589Z,26.42
2018-05-09T16:45:48.482Z,26.76
2018-05-09T16:48:15.356Z,26.54
2018-05-09T16:50:42.301Z,26.76
2018-05-09T16:53:09.238Z,26.70
2018-05-09T16:55:36.112Z,26.73
2018-05-09T16:58:03.048Z,26.91
2018-05-09T17:00:30.004Z,26.77
2018-05-09T17:02:56.929Z,26.95
2018-05-09T17:05:23.905Z,26.74
2018-05-09T17:07:50.864Z,26.58
2018-05-09T17:10:18.489Z,26.43
2018-05-09T17:12:46.270Z,26.24
2018-05-09T17:15:13.167Z,26.35
2018-05-09T17:17:40.051Z,26.44
2018-05-09T17:20:07.066Z,26.34
2018-05-09T17:22:33.987Z,26.41
2018-05-09T17:25:01.634Z,26.18
2018-05-09T17:27:28.771Z,26.21
2018-05-09T17:29:55.721Z,25.97
2018-05-09T17:32:23.372Z,26.03
2018-05-09T17:34:50.345Z,26.11
2018-05-09T17:37:17.993Z,25.90
2018-05-09T17:39:45.657Z,25.97
2018-05-09T17:42:12.596Z,25.94
2018-05-09T17:44:41.489Z,25.83
2018-05-09T17:47:08.402Z,25.91
2018-05-09T17:49:35.349Z,25.84
2018-05-09T17:52:02.221Z,25.99
2018-05-09T17:54:29.115Z,25.89
2018-05-09T17:56:56.049Z,25.93
2018-05-09T17:59:23.731Z,25.86
2018-05-09T18:01:50.631Z,25.80
2018-05-09T18:04:17.576Z,25.53
2018-05-09T18:06:44.460Z,25.52
2018-05-09T18:09:11.382Z,25.52
2018-05-09T18:11:38.405Z,25.30
2018-05-09T18:14:05.287Z,25.36
2018-05-09T18:16:32.217Z,25.10
2018-05-09T18:18:59.946Z,24.95
2018-05-09T18:21:26.912Z,24.90
2018-05-09T18:23:53.894Z,24.95
2018-05-09T18:26:20.836Z,24.88
2018-05-09T18:28:48.488Z,24.66
2018-05-09T18:31:15.361Z,24.47
2018-05-09T18:33:42.859Z,24.45
2018-05-09T18:36:09.738Z,24.31
2018-05-09T18:38:37.363Z,24.08
2018-05-09T18:41:04.424Z,23.82
2018-05-09T18:43:31.292Z,23.77
2018-05-09T18:45:59.002Z,23.72
2018-05-09T18:48:25.941Z,23.81
2018-05-09T18:50:52.832Z,23.70
2018-05-09T18:53:19.742Z,23.54
2018-05-09T18:55:46.675Z,23.44
2018-05-09T18:58:13.641Z,23.31
2018-05-09T19:00:40.558Z,23.10
2018-05-09T19:03:07.520Z,23.20
2018-05-09T19:05:34.420Z,23.12
2018-05-09T19:08:02.061Z,22.98
2018-05-09T19:10:29.000Z,23.03
2018-05-09T19:12:56.637Z,22.79
2018-05-09T19:15:23.654Z,22.58
2018-05-09T19:17:50.886Z,22.54
2018-05-09T19:20:17.784Z,22.58
2018-05-09T19:22:44.680Z,22.61
2018-05-09T19:25:11.619Z,22.40
2018-05-09T19:27:38.547Z,22.46
2018-05-09T19:30:05.435Z,22.39
2018-05-09T19:32:33.111Z,22.25
2018-05-09T19:35:00.754Z,22.40
2018-05-09T19:37:28.215Z,22.42
2018-05-09T19:39:55.487Z,22.43
2018-05-09T19:42:22.388Z,22.30
2018-05-09T19:44:49.264Z,22.15
2018-05-09T19:47:16.950Z,22.09
2018-05-09T19:49:43.836Z,22.18
2018-05-09T19:52:10.738Z,22.10
2018-05-09T19:54:37.714Z,22.06
2018-05-09T19:57:04.600Z,22.05
2018-05-09T19:59:31.483Z,22.01
2018-05-09T20:01:58.420Z,21.98
2018-05-09T20:04:25.293Z,21.93
2018-05-09T20:06:52.272Z,21.86
2018-05-09T20:09:19.556Z,21.85
2018-05-09T20:11:47.183Z,21.75
2018-05-09T20:14:14.072Z,21.80
2018-05-09T20:16:41.014Z,21.77
2018-05-09T20:19:08.676Z,21.66
2018-05-09T20:21:36.299Z,21.59
2018-05-09T20:24:03.486Z,21.61
2018-05-09T20:26:30.382Z,21.57
2018-05-09T20:29:01.205Z,21.49
2018-05-09T20:31:52.780Z,21.45
2018-05-09T20:34:19.687Z,21.38
2018-05-09T20:36:46.583Z,21.41
2018-05-09T20:39:13.664Z,21.32
2018-05-09T20:41:40.553Z,21.26
2018-05-09T20:44:07.441Z,21.17
2018-05-09T20:46:34.376Z,21.00
2018-05-09T20:49:01.266Z,21.00
2018-05-09T20:51:46.468Z,21.04
2018-05-09T20:54:13.335Z,20.89
2018-05-09T20:56:40.219Z,20.81
2018-05-09T20:59:07.223Z,20.72
2018-05-09T21:01:47.259Z,20.73
2018-05-09T21:04:14.292Z,20.71
2018-05-09T21:06:41.280Z,20.71
2018-05-09T21:09:08.205Z,20.68
2018-05-09T21:11:35.887Z,20.69
2018-05-09T21:14:03.550Z,20.63
2018-05-09T21:16:31.250Z,20.63
2018-05-09T21:18:58.210Z,20.47
2018-05-09T21:21:25.091Z,20.31
2018-05-09T21:23:51.972Z,20.28
2018-05-09T21:26:18.936Z,20.34
2018-05-09T21:28:45.807Z,20.22
2018-05-09T21:31:12.689Z,20.16
2018-05-09T21:33:39.636Z,20.33
2018-05-09T21:36:06.576Z,20.33
2018-05-09T21:38:34.189Z,20.34
2018-05-09T21:41:01.123Z,20.33
2018-05-09T21:43:28.006Z,20.29
2018-05-09T21:45:54.885Z,20.25
2018-05-09T21:48:21.800Z,20.21
2018-05-09T21:50:49.445Z,20.25
2018-05-09T21:53:17.104Z,20.21
2018-05-09T21:55:44.040Z,20.14
2018-05-09T21:58:10.933Z,20.17
2018-05-09T22:00:38.575Z,20.19
2018-05-09T22:03:05.576Z,20.17
2018-05-09T22:05:32.460Z,20.17
2018-05-09T22:07:59.359Z,20.22
2018-05-09T22:10:26.291Z,20.22
2018-05-09T22:12:53.903Z,20.13
2018-05-09T22:15:20.779Z,20.05
2018-05-09T22:17:48.456Z,20.07
2018-05-09T22:20:16.079Z,20.18
2018-05-09T22:22:42.964Z,20.19
2018-05-09T22:25:10.711Z,20.13
2018-05-09T22:27:37.600Z,20.19
2018-05-09T22:30:04.542Z,20.15
2018-05-09T22:32:31.573Z,20.07
2018-05-09T22:34:58.460Z,20.00
2018-05-09T22:37:25.392Z,19.92
2018-05-09T22:39:52.321Z,19.95
2018-05-09T22:42:19.216Z,19.90
2018-05-09T22:44:46.098Z,19.92
2018-05-09T22:47:13.028Z,19.91
2018-05-09T22:49:40.644Z,19.71
2018-05-09T22:52:07.528Z,19.70
2018-05-09T22:54:34.440Z,19.69
2018-05-09T22:57:01.328Z,19.62
2018-05-09T22:59:28.960Z,19.69
2018-05-09T23:01:55.900Z,19.56
2018-05-09T23:04:22.822Z,19.78
2018-05-09T23:06:49.702Z,19.63
2018-05-09T23:09:16.638Z,19.62
2018-05-09T23:11:43.520Z,19.52
2018-05-09T23:14:11.157Z,19.39
2018-05-09T23:16:38.241Z,19.45
2018-05-09T23:19:05.873Z,19.34
2018-05-09T23:21:32.764Z,19.28
2018-05-09T23:24:00.007Z,19.21
2018-05-09T23:26:26.944Z,19.29
2018-05-09T23:28:54.564Z,19.17
2018-05-09T23:31:21.496Z,19.07
2018-05-09T23:33:48.380Z,19.05
2018-05-09T23:36:15.263Z,18.87
2018-05-09T23:38:42.193Z,18.86
2018-05-09T23:41:09.867Z,18.84
2018-05-09T23:43:36.753Z,18.53
2018-05-09T23:46:03.703Z,18.33
2018-05-09T23:48:30.609Z,18.24
2018-05-09T23:50:57.564Z,18.16
2018-05-09T23:53:24.688Z,18.14
2018-05-09T23:55:52.390Z,18.14
2018-05-09T23:58:19.241Z,18.17
